Time;durP1;ratioP1;P1;durP2;ratioP2;P2;SDS_P1;SDS_P2;PMS_P1;PMS_P2;Temp;Humidity;BMP_temperature;BMP_pressure;BME280_temperature;BME280_humidity;BME280_pressure;Samples;Min_cycle;Max_cycle;Signal;HPM_P1;HPM_P2
2023/01/02 00:00:50;;;;;;;36.20;13.05;;;;;;;12.17;100.00;100719.00;5104420;28;20039;-77
2023/01/02 00:03:15;;;;;;;44.97;12.18;;;;;;;12.19;100.00;100713.41;5078453;28;20598;-77
2023/01/02 00:05:41;;;;;;;31.98;11.73;;;;;;;12.17;100.00;100721.75;5067945;28;20690;-77
2023/01/02 00:08:06;;;;;;;28.70;10.73;;;;;;;12.19;100.00;100718.88;5102582;28;20047;-77
2023/01/02 00:10:32;;;;;;;38.85;11.18;;;;;;;12.23;100.00;100718.47;5085562;28;20042;-77
2023/01/02 00:12:57;;;;;;;38.67;12.30;;;;;;;12.31;100.00;100707.69;5084429;28;20064;-77
2023/01/02 00:15:23;;;;;;;28.58;10.23;;;;;;;12.17;100.00;100704.41;5107183;28;20036;-77
2023/01/02 00:17:48;;;;;;;36.90;10.77;;;;;;;12.14;100.00;100716.53;5089651;28;20052;-77
2023/01/02 00:20:13;;;;;;;38.03;10.77;;;;;;;12.20;100.00;100717.84;5092094;28;20070;-77
2023/01/02 00:22:39;;;;;;;39.17;10.80;;;;;;;12.18;100.00;100709.75;5086961;28;20403;-77
2023/01/02 00:25:05;;;;;;;31.63;11.45;;;;;;;12.23;100.00;100701.13;5100947;28;20090;-77
2023/01/02 00:27:30;;;;;;;42.95;11.35;;;;;;;12.25;100.00;100677.16;5073999;28;20078;-77
2023/01/02 00:29:56;;;;;;;26.98;11.23;;;;;;;12.27;100.00;100675.16;5075636;28;20081;-77
2023/01/02 00:32:21;;;;;;;41.45;11.00;;;;;;;12.21;100.00;100679.28;5100326;28;20052;-77
2023/01/02 00:34:46;;;;;;;34.78;11.35;;;;;;;12.21;100.00;100668.31;5076937;28;20028;-77
2023/01/02 00:37:12;;;;;;;31.15;10.40;;;;;;;12.31;100.00;100668.38;5075310;28;20090;-77
2023/01/02 00:39:37;;;;;;;36.95;11.40;;;;;;;12.27;100.00;100670.53;5093265;28;20052;-77
2023/01/02 00:42:03;;;;;;;42.83;11.70;;;;;;;12.34;100.00;100667.22;5094092;28;20040;-77
2023/01/02 00:44:28;;;;;;;24.55;10.57;;;;;;;12.28;100.00;100669.53;5070826;28;20041;-77
2023/01/02 00:46:53;;;;;;;44.10;10.57;;;;;;;12.31;100.00;100665.63;5094955;28;20054;-77
2023/01/02 00:49:19;;;;;;;29.77;9.40;;;;;;;12.39;100.00;100668.53;5075375;28;20109;-77
2023/01/02 00:51:44;;;;;;;32.45;9.48;;;;;;;12.44;100.00;100676.38;5095117;28;20039;-77
2023/01/02 00:54:10;;;;;;;30.52;9.73;;;;;;;12.44;100.00;100670.88;5091575;28;20040;-77
2023/01/02 00:56:35;;;;;;;28.85;9.05;;;;;;;12.44;100.00;100670.88;5073530;28;20101;-77
2023/01/02 00:59:01;;;;;;;40.58;8.98;;;;;;;12.60;100.00;100676.72;5092546;28;20494;-77
2023/01/02 01:01:30;;;;;;;25.65;9.10;;;;;;;12.70;100.00;100668.50;5092649;28;20444;-77
2023/01/02 01:03:55;;;;;;;23.65;7.60;;;;;;;12.78;100.00;100667.81;5091501;28;20390;-77
2023/01/02 01:06:21;;;;;;;52.55;9.07;;;;;;;12.74;100.00;100663.59;5073046;28;20028;-77
2023/01/02 01:08:46;;;;;;;28.40;7.65;;;;;;;12.83;100.00;100662.78;5091761;28;20110;-77
2023/01/02 01:11:14;;;;;;;33.95;7.47;;;;;;;12.92;100.00;100661.94;5092947;28;20040;-77
2023/01/02 01:13:40;;;;;;;27.00;7.82;;;;;;;12.95;100.00;100655.25;5055935;28;20035;-77
2023/01/02 01:16:08;;;;;;;27.77;6.78;;;;;;;12.96;100.00;100654.28;5092524;28;20039;-77
2023/01/02 01:18:34;;;;;;;30.58;7.20;;;;;;;12.95;100.00;100652.53;5093054;28;20032;-77
2023/01/02 01:21:18;;;;;;;19.73;6.05;;;;;;;13.13;100.00;100649.94;5077233;28;20016;-77
2023/01/02 01:23:48;;;;;;;22.05;6.93;;;;;;;13.19;100.00;100658.47;5091876;28;20040;-77
2023/01/02 01:26:14;;;;;;;24.73;6.07;;;;;;;13.19;100.00;100646.63;5090992;28;20040;-77
2023/01/02 01:28:39;;;;;;;23.38;6.28;;;;;;;13.26;100.00;100652.41;5078504;28;20032;-77
2023/01/02 01:31:11;;;;;;;25.02;5.38;;;;;;;13.27;100.00;100656.91;5108014;27;20064;-77
2023/01/02 01:33:38;;;;;;;34.58;5.65;;;;;;;13.29;100.00;100661.25;5100175;27;20080;-77
2023/01/02 01:36:10;;;;;;;25.38;6.30;;;;;;;13.29;100.00;100658.50;5117306;27;20046;-77
2023/01/02 01:38:35;;;;;;;26.63;7.32;;;;;;;13.39;100.00;100655.78;5136540;27;20084;-77
2023/01/02 01:41:02;;;;;;;26.17;5.72;;;;;;;13.30;100.00;100657.50;5118202;27;20043;-77
2023/01/02 01:43:51;;;;;;;18.65;4.55;;;;;;;13.33;100.00;100661.84;5111466;27;20135;-77
2023/01/02 01:46:37;;;;;;;32.55;6.35;;;;;;;13.36;100.00;100676.19;5127212;27;20031;-77
2023/01/02 01:49:11;;;;;;;16.73;5.70;;;;;;;13.33;100.00;100670.09;5109348;27;20622;-77
2023/01/02 01:51:51;;;;;;;22.95;5.20;;;;;;;13.29;100.00;100672.22;5128533;27;20083;-77
2023/01/02 01:54:23;;;;;;;26.25;5.93;;;;;;;13.35;100.00;100663.44;5109857;27;20069;-77
2023/01/02 01:56:56;;;;;;;20.35;5.03;;;;;;;13.30;100.00;100665.72;5110199;27;20087;-77
2023/01/02 01:59:21;;;;;;;21.33;4.88;;;;;;;13.37;100.00;100674.31;5133492;27;20164;-77
2023/01/02 02:01:49;;;;;;;32.97;5.55;;;;;;;13.31;100.00;100680.34;5114388;27;20126;-77
2023/01/02 02:04:16;;;;;;;23.63;5.30;;;;;;;13.25;100.00;100679.06;5115577;27;20079;-77
2023/01/02 02:06:42;;;;;;;17.85;5.40;;;;;;;13.26;100.00;100680.78;5133373;27;20035;-77
2023/01/02 02:09:24;;;;;;;30.65;6.00;;;;;;;13.30;100.00;100667.59;5126695;27;20031;-77
2023/01/02 02:11:50;;;;;;;21.60;6.40;;;;;;;13.24;100.00;100669.91;5115309;27;20062;-77
2023/01/02 02:14:15;;;;;;;27.30;5.90;;;;;;;13.27;100.00;100660.53;5130088;27;20062;-77
2023/01/02 02:17:04;;;;;;;31.23;6.18;;;;;;;13.26;100.00;100678.03;5113607;27;20050;-77
2023/01/02 02:19:32;;;;;;;26.40;6.00;;;;;;;13.22;100.00;100676.59;5116611;27;20126;-77
2023/01/02 02:22:36;;;;;;;20.65;5.47;;;;;;;13.24;100.00;100677.31;5114829;27;20069;-77
2023/01/02 02:25:02;;;;;;;26.27;6.20;;;;;;;13.19;100.00;100679.63;5101232;27;20043;-77
2023/01/02 02:27:56;;;;;;;23.52;6.07;;;;;;;13.19;100.00;100663.97;5133669;27;20035;-77
2023/01/02 02:30:24;;;;;;;24.55;6.07;;;;;;;13.12;100.00;100672.94;5114261;27;20023;-77
2023/01/02 02:33:05;;;;;;;24.38;7.07;;;;;;;13.10;100.00;100666.72;5116485;27;20047;-77
2023/01/02 02:35:39;;;;;;;14.90;6.20;;;;;;;13.03;100.00;100670.03;5087529;27;20493;-77
2023/01/02 02:38:14;;;;;;;24.35;6.97;;;;;;;13.11;100.00;100669.31;5127613;27;20034;-77
2023/01/02 02:41:14;;;;;;;33.13;8.35;;;;;;;13.08;100.00;100666.84;5106246;27;20072;-77
2023/01/02 02:44:22;;;;;;;21.20;5.90;;;;;;;13.00;100.00;100662.09;5108710;27;20031;-77
2023/01/02 02:47:14;;;;;;;19.60;6.75;;;;;;;13.08;100.00;100663.25;5034368;28;20509;-77
2023/01/02 02:50:16;;;;;;;29.52;7.13;;;;;;;13.11;100.00;100671.22;5113447;27;20023;-77
2023/01/02 02:53:00;;;;;;;24.10;8.18;;;;;;;13.02;100.00;100662.81;5125686;27;20389;-77
2023/01/02 02:55:34;;;;;;;26.20;7.25;;;;;;;13.05;100.00;100665.28;5113594;27;20027;-77
2023/01/02 02:58:00;;;;;;;20.27;7.15;;;;;;;13.00;100.00;100664.84;5114311;27;20038;-77
2023/01/02 03:00:26;;;;;;;26.83;7.63;;;;;;;12.98;100.00;100674.22;5095867;27;20019;-77
2023/01/02 03:02:51;;;;;;;19.40;6.25;;;;;;;12.91;100.00;100670.31;5114616;27;20038;-77
2023/01/02 03:05:39;;;;;;;31.38;9.15;;;;;;;13.00;100.00;100670.34;5088404;27;20035;-77
2023/01/02 03:08:16;;;;;;;27.42;6.32;;;;;;;12.93;100.00;100677.38;5095175;27;20080;-77
2023/01/02 03:10:50;;;;;;;22.42;6.18;;;;;;;12.79;100.00;100661.28;5114713;27;20470;-77
2023/01/02 03:13:49;;;;;;;27.70;5.85;;;;;;;12.81;100.00;100662.06;5111401;27;20038;-77
2023/01/02 03:16:23;;;;;;;26.27;6.70;;;;;;;12.87;100.00;100676.09;5130589;27;20031;-77
2023/01/02 03:18:54;;;;;;;30.35;6.82;;;;;;;12.82;100.00;100681.16;5115248;27;20038;-77
2023/01/02 03:21:32;;;;;;;19.38;7.25;;;;;;;12.84;100.00;100673.63;5112571;27;20035;-77
2023/01/02 03:24:03;;;;;;;22.13;7.75;;;;;;;12.87;100.00;100669.72;5131537;27;20039;-77
2023/01/02 03:26:31;;;;;;;30.25;6.15;;;;;;;12.91;100.00;100668.44;5096326;27;20051;-77
2023/01/02 03:29:06;;;;;;;27.05;6.53;;;;;;;12.88;100.00;100668.72;5096961;27;20031;-77
2023/01/02 03:31:36;;;;;;;21.60;6.88;;;;;;;12.91;100.00;100673.94;5131251;27;20070;-77
2023/01/02 03:34:12;;;;;;;21.95;5.78;;;;;;;12.99;100.00;100662.22;5130051;27;20076;-77
2023/01/02 03:36:41;;;;;;;30.48;8.23;;;;;;;13.03;100.00;100664.53;5110951;27;20023;-77
2023/01/02 03:39:14;;;;;;;30.42;7.57;;;;;;;13.02;100.00;100676.56;5132060;27;20031;-77
2023/01/02 03:41:45;;;;;;;30.80;6.65;;;;;;;13.01;100.00;100677.56;5112302;27;20088;-77
2023/01/02 03:44:13;;;;;;;18.27;6.18;;;;;;;12.93;100.00;100680.13;5110696;27;20501;-77
2023/01/02 03:46:53;;;;;;;24.13;5.70;;;;;;;12.93;100.00;100688.38;5114674;27;20027;-76
2023/01/02 03:49:30;;;;;;;29.33;6.20;;;;;;;12.89;100.00;100692.44;5131065;27;20080;-77
2023/01/02 03:51:56;;;;;;;28.25;7.22;;;;;;;12.96;100.00;100679.88;5130664;27;20030;-77
2023/01/02 03:54:22;;;;;;;22.30;6.50;;;;;;;13.03;100.00;100674.66;5130009;27;20428;-77
2023/01/02 03:57:00;;;;;;;27.00;6.25;;;;;;;12.96;100.00;100663.38;5105887;27;20035;-77
2023/01/02 03:59:37;;;;;;;15.70;6.55;;;;;;;12.98;100.00;100657.75;5110126;28;20381;-78
2023/01/02 04:02:38;;;;;;;17.35;4.88;;;;;;;13.03;100.00;100652.69;5126726;27;20046;-77
2023/01/02 04:05:27;;;;;;;24.73;5.75;;;;;;;12.99;100.00;100673.22;5023009;28;20125;-78
2023/01/02 04:08:01;;;;;;;17.27;5.43;;;;;;;12.93;100.00;100690.28;5110090;28;20485;-76
2023/01/02 04:10:28;;;;;;;27.55;5.97;;;;;;;12.93;100.00;100682.88;5111827;27;20035;-76
2023/01/02 04:12:59;;;;;;;26.38;5.80;;;;;;;13.01;100.00;100702.28;5112535;27;20072;-76
2023/01/02 04:15:27;;;;;;;23.50;5.82;;;;;;;13.00;100.00;100700.56;5112140;27;20036;-76
2023/01/02 04:18:06;;;;;;;27.95;5.80;;;;;;;13.01;100.00;100696.78;5116900;27;20432;-76
2023/01/02 04:20:40;;;;;;;15.60;4.70;;;;;;;13.04;100.00;100698.41;5135646;27;20478;-76
2023/01/02 04:23:11;;;;;;;16.20;4.70;;;;;;;12.93;100.00;100702.13;5135556;27;20034;-76
2023/01/02 04:25:43;;;;;;;23.13;5.85;;;;;;;12.91;100.00;100701.41;5118574;27;20038;-76
2023/01/02 04:28:31;;;;;;;21.97;5.50;;;;;;;13.01;100.00;100695.94;5118097;27;20158;-77
2023/01/02 04:31:11;;;;;;;17.33;4.78;;;;;;;12.99;100.00;100704.31;5115831;27;20035;-76
2023/01/02 04:33:43;;;;;;;26.60;6.70;;;;;;;13.11;100.00;100698.69;5103685;27;20054;-77
2023/01/02 04:36:11;;;;;;;16.35;5.40;;;;;;;13.06;100.00;100708.22;5135041;27;20031;-76
2023/01/02 04:38:37;;;;;;;49.60;6.60;;;;;;;12.98;100.00;100699.81;5136262;27;20035;-77
2023/01/02 04:41:03;;;;;;;14.35;4.45;;;;;;;12.95;100.00;100697.34;5099499;27;20039;-77
2023/01/02 04:43:29;;;;;;;17.98;5.05;;;;;;;12.96;100.00;100701.00;5136562;27;20518;-77
2023/01/02 04:45:54;;;;;;;26.15;5.70;;;;;;;13.03;100.00;100704.91;5135958;27;20031;-76
2023/01/02 04:48:22;;;;;;;21.80;5.10;;;;;;;13.08;100.00;100685.25;5082051;27;20089;-77
2023/01/02 04:50:48;;;;;;;21.40;4.68;;;;;;;13.03;100.00;100707.66;5082376;27;20036;-77
2023/01/02 04:53:14;;;;;;;18.02;4.28;;;;;;;12.99;100.00;100698.81;5101818;27;20066;-77
2023/01/02 04:55:40;;;;;;;16.52;4.32;;;;;;;13.17;100.00;100700.88;5133331;27;20375;-77
2023/01/02 04:58:06;;;;;;;16.58;4.18;;;;;;;13.17;100.00;100714.63;5115058;27;20049;-77
2023/01/02 05:00:33;;;;;;;19.40;4.57;;;;;;;13.25;100.00;100706.53;5114043;27;20112;-77
2023/01/02 05:03:01;;;;;;;18.88;4.60;;;;;;;13.33;100.00;100716.84;5114125;27;20038;-77
2023/01/02 05:05:26;;;;;;;24.40;5.03;;;;;;;13.34;100.00;100715.84;5112069;27;20034;-76
2023/01/02 05:07:51;;;;;;;23.45;4.82;;;;;;;13.37;100.00;100727.41;5133357;27;20039;-76
2023/01/02 05:10:17;;;;;;;19.70;4.80;;;;;;;13.31;100.00;100727.09;5082767;27;20054;-76
2023/01/02 05:12:42;;;;;;;23.92;5.00;;;;;;;13.13;100.00;100732.41;5114989;27;20461;-76
2023/01/02 05:15:09;;;;;;;13.15;3.92;;;;;;;13.08;100.00;100732.81;5131116;27;20027;-77
2023/01/02 05:17:40;;;;;;;21.05;4.32;;;;;;;13.19;100.00;100732.72;5096259;27;20035;-76
2023/01/02 05:20:11;;;;;;;20.65;4.63;;;;;;;13.21;100.00;100735.31;5098625;27;20035;-76
2023/01/02 05:25:26;;;;;;;18.02;4.28;;;;;;;13.19;100.00;100749.22;5131396;27;20043;-76
2023/01/02 05:27:55;;;;;;;20.50;4.18;;;;;;;13.24;100.00;100746.91;5111214;27;20035;-76
2023/01/02 05:30:21;;;;;;;10.88;3.80;;;;;;;13.28;100.00;100752.13;5110887;27;20030;-76
2023/01/02 05:32:46;;;;;;;18.52;4.40;;;;;;;13.27;100.00;100754.00;5076587;27;20047;-76
2023/01/02 05:35:12;;;;;;;15.25;3.40;;;;;;;13.26;100.00;100756.91;5110844;27;20043;-76
2023/01/02 05:37:37;;;;;;;11.95;3.33;;;;;;;13.22;100.00;100757.19;5127567;27;20031;-77
2023/01/02 05:40:03;;;;;;;15.75;3.78;;;;;;;13.36;100.00;100760.56;5128014;27;20031;-76
2023/01/02 05:42:29;;;;;;;13.18;4.53;;;;;;;13.38;100.00;100766.78;5127893;27;20081;-77
2023/01/02 05:44:54;;;;;;;18.13;3.75;;;;;;;13.27;100.00;100772.41;5128112;27;20453;-77
2023/01/02 05:47:20;;;;;;;22.58;3.53;;;;;;;13.29;100.00;100767.63;5110976;27;20039;-76
2023/01/02 05:49:48;;;;;;;19.77;3.25;;;;;;;13.21;100.00;100771.06;5112327;27;20127;-76
2023/01/02 05:52:14;;;;;;;13.07;4.10;;;;;;;13.32;100.00;100778.34;5111504;27;20047;-77
2023/01/02 05:54:39;;;;;;;13.63;3.63;;;;;;;13.24;100.00;100770.78;5127177;27;20413;-77
2023/01/02 05:57:05;;;;;;;15.45;3.33;;;;;;;13.20;100.00;100775.69;5113923;27;20063;-77
2023/01/02 05:59:30;;;;;;;18.45;3.97;;;;;;;13.40;100.00;100775.78;5093576;27;20393;-77
2023/01/02 06:01:56;;;;;;;16.90;3.50;;;;;;;13.20;100.00;100766.59;5129458;27;20122;-77
2023/01/02 06:04:21;;;;;;;7.82;3.80;;;;;;;13.05;100.00;100766.97;5080589;27;20454;-77
2023/01/02 06:06:48;;;;;;;18.95;5.65;;;;;;;13.03;100.00;100751.63;5114874;27;20037;-77
2023/01/02 06:09:15;;;;;;;13.15;3.22;;;;;;;13.06;100.00;100771.44;5121960;27;20088;-77
2023/01/02 06:11:41;;;;;;;14.15;3.53;;;;;;;13.12;100.00;100781.03;5126370;27;20050;-77
2023/01/02 06:14:07;;;;;;;15.38;3.67;;;;;;;13.11;100.00;100776.53;5090757;27;20034;-77
2023/01/02 06:16:33;;;;;;;14.80;3.55;;;;;;;13.08;100.00;100781.44;5111936;27;20039;-77
2023/01/02 06:18:58;;;;;;;13.77;3.35;;;;;;;13.13;100.00;100785.50;5115767;27;20037;-77
2023/01/02 06:21:24;;;;;;;9.57;2.78;;;;;;;13.13;100.00;100790.13;5076842;28;20397;-77
2023/01/02 06:23:55;;;;;;;10.32;3.05;;;;;;;13.11;100.00;100783.91;5093047;27;20464;-77
2023/01/02 06:26:22;;;;;;;10.45;3.05;;;;;;;13.14;100.00;100790.00;5116378;27;20111;-77
2023/01/02 06:28:50;;;;;;;10.55;3.63;;;;;;;13.15;100.00;100793.59;5113023;27;20080;-77
2023/01/02 06:31:17;;;;;;;12.48;3.55;;;;;;;13.17;100.00;100794.38;5134118;27;20114;-77
2023/01/02 06:33:43;;;;;;;10.45;2.95;;;;;;;13.10;100.00;100801.41;5113828;27;20033;-77
2023/01/02 06:36:11;;;;;;;14.80;3.40;;;;;;;13.12;100.00;100794.78;5131678;27;20125;-77
2023/01/02 06:38:37;;;;;;;15.30;3.67;;;;;;;13.00;100.00;100796.78;5133271;27;20067;-77
2023/01/02 06:41:04;;;;;;;14.63;3.65;;;;;;;13.02;100.00;100811.22;5115082;27;20035;-77
2023/01/02 06:43:30;;;;;;;19.95;3.67;;;;;;;13.13;100.00;100807.50;5134500;27;20555;-77
2023/01/02 06:46:00;;;;;;;9.50;2.85;;;;;;;13.10;100.00;100818.78;5113598;27;20084;-77
2023/01/02 06:48:26;;;;;;;13.65;3.65;;;;;;;13.06;100.00;100815.44;5107091;27;20393;-77
2023/01/02 06:50:52;;;;;;;9.45;2.80;;;;;;;12.95;100.00;100820.16;5097750;27;20019;-76
2023/01/02 06:53:17;;;;;;;12.52;2.70;;;;;;;12.93;100.00;100822.19;5113373;27;20074;-77
2023/01/02 06:55:53;;;;;;;12.13;3.20;;;;;;;12.95;100.00;100826.50;5098554;27;20064;-78
2023/01/02 06:58:19;;;;;;;13.90;2.90;;;;;;;12.92;100.00;100820.44;5092842;28;20070;-77
2023/01/02 07:00:45;;;;;;;11.95;3.85;;;;;;;13.00;100.00;100832.50;5124604;27;20474;-77
2023/01/02 07:03:11;;;;;;;17.50;4.22;;;;;;;12.96;100.00;100853.00;5131463;27;20092;-77
2023/01/02 07:05:36;;;;;;;17.92;4.85;;;;;;;13.02;100.00;100903.84;5099146;27;20046;-77
2023/01/02 07:08:02;;;;;;;11.18;3.20;;;;;;;12.46;100.00;100907.78;5110024;27;20355;-77
2023/01/02 07:10:27;;;;;;;8.98;2.70;;;;;;;12.31;100.00;100913.59;5131536;27;20054;-77
2023/01/02 07:12:53;;;;;;;6.82;1.60;;;;;;;12.12;100.00;100930.75;5132067;27;20096;-77
2023/01/02 07:15:18;;;;;;;2.42;1.50;;;;;;;11.89;100.00;100923.56;5113945;27;20431;-77
2023/01/02 07:17:43;;;;;;;3.30;0.90;;;;;;;11.78;100.00;100932.69;5114174;27;20039;-76
2023/01/02 07:20:09;;;;;;;2.45;0.93;;;;;;;11.81;100.00;100948.88;5115795;27;20446;-77
2023/01/02 07:22:35;;;;;;;2.42;0.75;;;;;;;11.70;100.00;100949.75;5115241;27;20043;-77
2023/01/02 07:25:00;;;;;;;3.63;0.60;;;;;;;11.52;100.00;100954.03;5097079;27;20038;-77
2023/01/02 07:27:30;;;;;;;0.68;0.55;;;;;;;11.45;100.00;100966.50;5094657;27;20088;-77
2023/01/02 07:29:55;;;;;;;1.05;0.50;;;;;;;11.28;100.00;100966.00;5124036;27;20099;-76
2023/01/02 07:32:21;;;;;;;1.15;0.60;;;;;;;11.40;100.00;100978.69;5089369;27;20502;-76
2023/01/02 07:34:47;;;;;;;0.68;0.50;;;;;;;11.33;100.00;100990.28;5104590;27;20035;-77
2023/01/02 07:37:12;;;;;;;3.42;0.43;;;;;;;11.28;100.00;101006.22;5075724;27;20031;-77
2023/01/02 07:39:38;;;;;;;5.78;0.70;;;;;;;11.20;100.00;101004.97;5123258;27;20385;-76
2023/01/02 07:42:03;;;;;;;0.40;0.40;;;;;;;11.10;100.00;101009.44;5127463;27;20045;-77
2023/01/02 07:44:29;;;;;;;1.63;0.60;;;;;;;11.16;100.00;101008.94;5123493;27;20314;-78
2023/01/02 07:46:54;;;;;;;0.73;0.60;;;;;;;11.23;100.00;101012.06;5107754;27;20026;-76
2023/01/02 07:49:19;;;;;;;1.05;0.80;;;;;;;11.30;100.00;101023.44;5107216;27;20059;-77
2023/01/02 07:51:45;;;;;;;4.18;0.93;;;;;;;11.30;100.00;101040.75;5075809;27;20043;-76
2023/01/02 07:54:10;;;;;;;4.50;1.10;;;;;;;11.17;100.00;101040.84;5108436;28;20039;-76
2023/01/02 07:56:36;;;;;;;4.85;1.23;;;;;;;11.13;100.00;101041.19;5110146;27;20126;-76
2023/01/02 07:59:01;;;;;;;5.35;1.20;;;;;;;11.17;100.00;101049.06;5111630;28;20125;-77
2023/01/02 08:01:26;;;;;;;2.05;1.20;;;;;;;11.19;100.00;101051.69;5096056;27;20149;-77
2023/01/02 08:03:52;;;;;;;2.58;1.10;;;;;;;11.07;100.00;101061.75;5094020;28;20035;-77
2023/01/02 08:06:18;;;;;;;2.72;1.63;;;;;;;11.04;100.00;101059.25;5094552;28;20497;-77
2023/01/02 08:08:43;;;;;;;8.32;1.80;;;;;;;11.07;100.00;101072.72;5108158;28;20027;-77
2023/01/02 08:11:14;;;;;;;2.70;1.70;;;;;;;11.07;100.00;101077.28;5076979;28;20074;-78
2023/01/02 08:13:40;;;;;;;5.88;2.53;;;;;;;11.12;100.00;101086.06;5112159;28;20493;-78
2023/01/02 08:16:09;;;;;;;10.52;3.95;;;;;;;11.12;100.00;101086.94;5110092;28;20027;-78
2023/01/02 08:18:35;;;;;;;8.35;3.33;;;;;;;11.22;100.00;101098.03;5133177;28;20472;-78
2023/01/02 08:21:01;;;;;;;6.90;4.53;;;;;;;11.17;100.00;101101.13;5096569;28;20043;-77
2023/01/02 08:23:26;;;;;;;9.30;4.57;;;;;;;11.05;100.00;101099.34;5081110;28;20080;-78
2023/01/02 08:25:52;;;;;;;12.48;5.70;;;;;;;11.01;100.00;101098.69;5104559;28;20035;-77
2023/01/02 08:28:17;;;;;;;14.82;6.72;;;;;;;11.02;100.00;101113.31;5095135;28;20084;-77
2023/01/02 08:30:43;;;;;;;12.73;6.53;;;;;;;11.05;100.00;101118.50;5103861;27;20458;-77
2023/01/02 08:33:08;;;;;;;12.82;6.63;;;;;;;10.99;100.00;101125.34;5086939;27;20352;-77
2023/01/02 08:35:33;;;;;;;12.45;6.28;;;;;;;10.94;100.00;101126.72;5086965;28;20118;-77
2023/01/02 08:37:59;;;;;;;17.60;8.07;;;;;;;11.07;100.00;101133.00;5114634;28;20129;-77
2023/01/02 08:40:24;;;;;;;17.17;7.55;;;;;;;10.92;100.00;101143.25;5132537;28;20027;-77
2023/01/02 08:42:50;;;;;;;15.77;8.32;;;;;;;10.88;100.00;101140.88;5099402;28;20039;-77
2023/01/02 08:45:16;;;;;;;14.07;7.72;;;;;;;10.76;100.00;101143.53;5114653;28;20074;-77
2023/01/02 08:47:41;;;;;;;16.42;9.20;;;;;;;10.96;100.00;101157.59;5111987;28;20039;-78
2023/01/02 08:50:07;;;;;;;20.58;9.38;;;;;;;10.83;100.00;101153.03;5130347;28;20031;-77
2023/01/02 08:52:32;;;;;;;14.98;7.97;;;;;;;10.85;100.00;101163.88;5099783;28;20031;-77
2023/01/02 08:54:59;;;;;;;16.13;8.65;;;;;;;10.84;100.00;101170.38;5083091;27;20030;-77
2023/01/02 08:57:25;;;;;;;17.10;8.73;;;;;;;10.77;100.00;101169.06;5119374;27;20121;-78
2023/01/02 08:59:51;;;;;;;18.70;9.52;;;;;;;10.69;100.00;101168.75;5134267;27;20110;-77
2023/01/02 09:02:17;;;;;;;17.58;8.65;;;;;;;10.74;100.00;101183.88;5099156;27;20027;-77
2023/01/02 09:04:42;;;;;;;21.00;8.75;;;;;;;10.76;100.00;101190.09;5099074;27;20037;-78
2023/01/02 09:07:08;;;;;;;16.42;8.68;;;;;;;10.71;100.00;101194.16;5091642;27;20077;-78
2023/01/02 09:09:33;;;;;;;18.77;9.02;;;;;;;10.74;100.00;101186.63;5130943;27;20042;-78
2023/01/02 09:11:59;;;;;;;11.30;6.50;;;;;;;10.73;100.00;101194.94;5096464;27;20034;-78
2023/01/02 09:14:25;;;;;;;13.88;6.18;;;;;;;10.88;100.00;101212.09;5101591;27;20035;-78
2023/01/02 09:16:51;;;;;;;12.73;6.18;;;;;;;10.59;100.00;101207.78;5118859;27;20046;-78
2023/01/02 09:19:17;;;;;;;10.75;5.82;;;;;;;10.69;100.00;101207.09;5103855;28;20019;-78
2023/01/02 09:21:42;;;;;;;14.05;5.93;;;;;;;10.71;100.00;101210.59;5088561;28;20120;-78
2023/01/02 09:24:08;;;;;;;13.98;6.00;;;;;;;10.77;100.00;101210.13;5121394;27;20035;-78
2023/01/02 09:26:34;;;;;;;11.73;5.40;;;;;;;10.83;100.00;101232.47;5080870;27;20425;-78
2023/01/02 09:28:59;;;;;;;13.10;5.78;;;;;;;10.87;100.00;101232.25;5120460;27;20513;-78
2023/01/02 09:31:25;;;;;;;12.93;5.50;;;;;;;10.64;100.00;101243.03;5100651;27;20043;-78
2023/01/02 09:33:52;;;;;;;11.38;5.00;;;;;;;10.66;100.00;101246.56;5129881;27;20027;-78
2023/01/02 09:36:18;;;;;;;9.02;4.25;;;;;;;10.63;100.00;101255.00;5094435;27;20031;-79
2023/01/02 09:38:50;;;;;;;10.10;5.00;;;;;;;10.59;100.00;101265.31;5122790;27;20031;-79
2023/01/02 09:41:28;;;;;;;10.65;3.97;;;;;;;10.77;100.00;101270.41;5115868;27;20023;-78
2023/01/02 09:44:20;;;;;;;6.93;4.28;;;;;;;10.78;100.00;101273.03;5098086;27;20118;-78
2023/01/02 09:46:51;;;;;;;9.13;4.03;;;;;;;10.73;100.00;101275.22;5133532;27;20026;-78
2023/01/02 09:49:21;;;;;;;9.30;4.15;;;;;;;10.77;100.00;101281.34;5119997;27;20046;-78
2023/01/02 09:51:46;;;;;;;15.20;4.63;;;;;;;10.69;100.00;101292.00;5142236;27;20038;-78
2023/01/02 09:54:32;;;;;;;9.75;4.53;;;;;;;10.77;100.00;101290.47;5132432;27;20043;-78
2023/01/02 09:57:26;;;;;;;8.00;4.75;;;;;;;10.73;100.00;101288.94;5115608;27;20513;-79
2023/01/02 10:00:08;;;;;;;7.93;4.03;;;;;;;10.81;100.00;101286.50;5110328;27;20039;-78
2023/01/02 10:03:03;;;;;;;10.02;4.60;;;;;;;10.85;100.00;101282.56;5112986;27;20474;-81
2023/01/02 10:05:46;;;;;;;11.43;4.60;;;;;;;11.04;100.00;101284.81;5133925;27;20035;-80
2023/01/02 10:08:33;;;;;;;9.07;5.10;;;;;;;11.09;100.00;101286.34;5118275;27;20490;-79
2023/01/02 10:11:16;;;;;;;11.43;5.07;;;;;;;11.25;100.00;101291.53;5101828;27;20387;-80
2023/01/02 10:13:50;;;;;;;12.00;5.30;;;;;;;11.34;100.00;101296.31;5111952;27;20505;-79
2023/01/02 10:16:22;;;;;;;12.90;4.88;;;;;;;11.42;100.00;101287.53;5136915;27;20058;-80
2023/01/02 10:18:51;;;;;;;17.70;6.03;;;;;;;11.25;100.00;101303.38;5115384;27;20058;-80
2023/01/02 10:21:24;;;;;;;16.33;6.18;;;;;;;11.11;100.00;101309.88;5113830;27;20519;-79
2023/01/02 10:24:00;;;;;;;12.88;6.57;;;;;;;11.18;100.00;101302.06;5093934;27;20118;-79
2023/01/02 10:26:35;;;;;;;14.15;6.57;;;;;;;10.88;100.00;101307.97;5118491;27;20027;-80
2023/01/02 10:29:30;;;;;;;11.98;6.95;;;;;;;11.06;100.00;101301.13;5097007;27;20087;-81
2023/01/02 10:32:01;;;;;;;13.05;6.88;;;;;;;11.03;100.00;101315.94;5122635;27;20055;-79
2023/01/02 10:34:41;;;;;;;14.68;7.40;;;;;;;11.09;100.00;101311.88;5117479;27;20542;-79
2023/01/02 10:37:15;;;;;;;13.02;7.40;;;;;;;11.15;100.00;101319.63;5098156;27;20537;-80
2023/01/02 10:39:43;;;;;;;13.60;6.40;;;;;;;10.97;100.00;101302.69;5118651;27;20031;-79
2023/01/02 10:42:12;;;;;;;25.33;8.52;;;;;;;11.11;100.00;101315.38;5119896;27;20038;-79
2023/01/02 10:44:39;;;;;;;13.00;6.90;;;;;;;11.05;100.00;101315.81;5116954;27;20465;-79
2023/01/02 10:47:18;;;;;;;15.50;7.72;;;;;;;11.00;100.00;101315.28;5137938;27;20385;-79
2023/01/02 10:49:43;;;;;;;14.93;7.30;;;;;;;11.01;100.00;101315.16;5114287;27;20041;-79
2023/01/02 10:52:28;;;;;;;14.35;6.03;;;;;;;10.86;100.00;101316.31;5137346;27;20102;-79
2023/01/02 10:54:57;;;;;;;13.52;6.40;;;;;;;11.01;100.00;101328.00;5112417;27;20031;-80
2023/01/02 10:57:44;;;;;;;15.30;5.75;;;;;;;10.88;100.00;101317.06;5114327;27;20027;-79
2023/01/02 11:00:18;;;;;;;12.25;5.63;;;;;;;10.94;100.00;101315.75;5132533;27;20084;-79
2023/01/02 11:02:50;;;;;;;13.77;5.38;;;;;;;10.98;100.00;101323.59;5113640;27;20504;-79
2023/01/02 11:05:23;;;;;;;9.75;5.70;;;;;;;10.96;100.00;101325.59;5114760;27;20189;-79
2023/01/02 11:07:51;;;;;;;11.68;4.97;;;;;;;11.01;100.00;101323.38;5132387;27;20039;-79
2023/01/02 11:10:32;;;;;;;17.30;7.88;;;;;;;11.03;100.00;101332.38;5132974;27;20489;-79
2023/01/02 11:13:02;;;;;;;16.33;6.43;;;;;;;11.15;100.00;101335.19;5121213;27;20478;-79
2023/01/02 11:15:33;;;;;;;12.45;7.05;;;;;;;11.16;100.00;101337.81;5135494;27;20525;-79
2023/01/02 11:18:00;;;;;;;16.15;7.97;;;;;;;11.11;100.00;101341.91;5097127;27;20023;-79
2023/01/02 11:20:29;;;;;;;16.90;7.97;;;;;;;11.23;100.00;101332.75;5135551;27;20027;-79
2023/01/02 11:22:57;;;;;;;21.38;8.38;;;;;;;11.29;100.00;101336.94;5116953;27;20027;-79
2023/01/02 11:25:31;;;;;;;15.00;7.90;;;;;;;11.22;100.00;101342.00;5117013;27;20027;-79